Time;durP1;ratioP1;P1;durP2;ratioP2;P2;SDS_P1;SDS_P2;PMS_P1;PMS_P2;Temp;Humidity;BMP_temperature;BMP_pressure;BME280_temperature;BME280_humidity;BME280_pressure;Samples;Min_cycle;Max_cycle;Signal;HPM_P1;HPM_P2
2023/08/19 00:00:22;;;;;;;17.02;12.55;;;20.90;99.90;;;;;;5095693;28;20040;-87
2023/08/19 00:02:49;;;;;;;14.02;12.27;;;20.90;99.90;;;;;;5094536;28;20070;-87
2023/08/19 00:05:16;;;;;;;16.58;12.57;;;20.80;99.90;;;;;;5078288;28;20123;-86
2023/08/19 00:07:43;;;;;;;18.33;12.27;;;20.80;99.90;;;;;;5095238;28;20055;-87
2023/08/19 00:10:10;;;;;;;15.27;12.75;;;20.80;99.90;;;;;;5094823;28;20046;-87
2023/08/19 00:12:36;;;;;;;16.38;12.73;;;20.80;99.90;;;;;;5094237;28;20036;-87
2023/08/19 00:15:04;;;;;;;14.70;12.43;;;20.80;99.90;;;;;;5094841;28;20550;-87
2023/08/19 00:17:30;;;;;;;16.77;14.40;;;20.80;99.90;;;;;;5094703;28;20039;-87
2023/08/19 00:19:57;;;;;;;15.68;13.18;;;20.70;99.90;;;;;;5094713;28;20070;-87
2023/08/19 00:22:24;;;;;;;17.70;13.95;;;20.70;99.90;;;;;;5094903;28;20047;-87
2023/08/19 00:24:50;;;;;;;16.50;13.05;;;20.70;99.90;;;;;;5077668;28;20036;-87
2023/08/19 00:27:17;;;;;;;15.30;12.85;;;20.70;99.90;;;;;;5094790;28;20042;-86
2023/08/19 00:29:44;;;;;;;16.35;13.40;;;20.70;99.90;;;;;;5077957;28;20036;-87
2023/08/19 00:32:10;;;;;;;15.77;12.93;;;20.80;99.90;;;;;;5077634;28;20164;-87
2023/08/19 00:34:37;;;;;;;16.35;12.77;;;20.60;99.90;;;;;;5094554;28;20040;-87
2023/08/19 00:37:04;;;;;;;17.73;12.82;;;20.50;99.90;;;;;;5077538;28;20132;-87
2023/08/19 00:39:31;;;;;;;16.42;13.82;;;20.60;99.90;;;;;;5094495;28;20039;-86
2023/08/19 00:41:57;;;;;;;17.05;13.35;;;20.50;99.90;;;;;;5077323;28;20035;-87
2023/08/19 00:44:25;;;;;;;18.33;13.95;;;20.50;99.90;;;;;;5077568;28;20101;-87
2023/08/19 00:46:52;;;;;;;17.10;13.93;;;20.50;99.90;;;;;;5077344;28;20123;-87
2023/08/19 00:49:19;;;;;;;18.08;13.57;;;20.50;99.90;;;;;;5093796;28;20148;-87
2023/08/19 00:51:46;;;;;;;16.83;13.15;;;20.50;99.90;;;;;;5094275;28;20040;-87
2023/08/19 00:54:13;;;;;;;17.27;13.10;;;20.50;99.90;;;;;;5093958;28;20134;-87
2023/08/19 00:56:40;;;;;;;17.98;13.23;;;20.40;99.90;;;;;;5094071;28;20040;-86
2023/08/19 00:59:07;;;;;;;18.77;13.15;;;20.40;99.90;;;;;;5093674;28;20051;-87
2023/08/19 01:01:34;;;;;;;16.13;13.20;;;20.40;99.90;;;;;;5094039;28;20044;-86
2023/08/19 01:04:01;;;;;;;20.02;13.73;;;20.30;99.90;;;;;;5077015;28;20040;-87
2023/08/19 01:07:00;;;;;;;15.93;12.70;;;20.30;99.90;;;;;;5093647;28;20044;-87
2023/08/19 01:09:31;;;;;;;16.45;11.98;;;20.30;99.90;;;;;;5093091;28;20048;-87
2023/08/19 01:12:25;;;;;;;16.55;12.40;;;20.20;99.90;;;;;;5093299;28;20048;-86
2023/08/19 01:15:21;;;;;;;17.13;12.55;;;20.20;99.90;;;;;;5093142;28;20036;-86
2023/08/19 01:17:50;;;;;;;16.15;13.38;;;20.20;99.90;;;;;;5093067;28;20097;-87
2023/08/19 01:20:18;;;;;;;18.38;13.40;;;20.20;99.90;;;;;;5093872;28;20040;-86
2023/08/19 01:23:14;;;;;;;16.15;13.60;;;20.20;99.90;;;;;;5093825;28;20131;-87
2023/08/19 01:25:42;;;;;;;16.08;13.10;;;20.20;99.90;;;;;;5093611;28;20036;-87
2023/08/19 01:28:09;;;;;;;17.50;13.73;;;20.20;99.90;;;;;;5076440;28;20121;-86
2023/08/19 01:30:36;;;;;;;16.80;13.10;;;20.10;99.90;;;;;;5093235;28;20046;-86
2023/08/19 01:33:03;;;;;;;18.05;13.70;;;20.10;99.90;;;;;;5076784;28;20044;-86
2023/08/19 01:35:42;;;;;;;15.85;13.35;;;20.10;99.90;;;;;;5093123;28;20040;-86
2023/08/19 01:38:15;;;;;;;17.27;13.52;;;20.10;99.90;;;;;;5092932;28;20044;-87
2023/08/19 01:40:42;;;;;;;20.88;14.70;;;20.10;99.90;;;;;;5093263;28;20101;-86
2023/08/19 01:43:11;;;;;;;17.33;13.38;;;20.00;99.90;;;;;;5092495;28;20052;-86
2023/08/19 01:45:39;;;;;;;18.98;13.52;;;20.00;99.90;;;;;;5092475;28;20151;-86
2023/08/19 01:48:06;;;;;;;22.08;13.85;;;20.00;99.90;;;;;;5093201;28;20051;-87
2023/08/19 01:50:33;;;;;;;16.63;13.73;;;20.00;99.90;;;;;;5076694;28;20036;-87
2023/08/19 01:53:00;;;;;;;20.23;13.65;;;20.00;99.90;;;;;;5093306;28;20104;-86
2023/08/19 01:55:26;;;;;;;16.77;13.73;;;20.00;99.90;;;;;;5093014;28;20039;-86
2023/08/19 01:57:53;;;;;;;15.45;12.73;;;19.90;99.90;;;;;;5092604;28;20560;-87
2023/08/19 02:00:20;;;;;;;18.90;13.65;;;19.90;99.90;;;;;;5092735;28;20174;-86
2023/08/19 02:02:46;;;;;;;20.70;13.60;;;19.90;99.90;;;;;;5093205;28;20032;-86
2023/08/19 02:05:14;;;;;;;17.95;13.52;;;19.90;99.90;;;;;;5092876;28;20032;-87
2023/08/19 02:07:41;;;;;;;18.17;14.18;;;19.90;99.90;;;;;;5076657;28;20128;-86
2023/08/19 02:10:08;;;;;;;18.75;13.95;;;19.90;99.90;;;;;;5091997;28;20074;-86
2023/08/19 02:12:35;;;;;;;15.95;13.23;;;19.80;99.90;;;;;;5093097;28;20040;-86
2023/08/19 02:15:02;;;;;;;16.02;13.30;;;19.80;99.90;;;;;;5092499;28;20046;-87
2023/08/19 02:17:28;;;;;;;15.95;12.85;;;19.80;99.90;;;;;;5075876;28;20043;-86
2023/08/19 02:19:55;;;;;;;17.50;14.15;;;19.80;99.90;;;;;;5076043;28;20051;-86
2023/08/19 02:22:22;;;;;;;18.38;14.82;;;19.80;99.90;;;;;;5092747;28;20055;-87
2023/08/19 02:24:49;;;;;;;17.08;14.52;;;19.80;99.90;;;;;;5092473;28;20403;-86
2023/08/19 02:27:16;;;;;;;17.77;15.15;;;19.80;99.90;;;;;;5075529;28;20097;-86
2023/08/19 02:29:43;;;;;;;20.10;15.05;;;19.80;99.90;;;;;;5092777;28;20484;-86
2023/08/19 02:32:09;;;;;;;18.73;14.48;;;19.80;99.90;;;;;;5092227;28;20043;-87
2023/08/19 02:34:36;;;;;;;18.13;14.80;;;19.80;99.90;;;;;;5092625;28;20558;-86
2023/08/19 02:37:03;;;;;;;19.58;14.98;;;19.80;99.90;;;;;;5092380;28;20385;-86
2023/08/19 02:39:30;;;;;;;19.13;15.02;;;19.80;99.90;;;;;;5092786;28;20040;-86
2023/08/19 02:41:56;;;;;;;16.85;13.95;;;19.80;99.90;;;;;;5092330;28;20043;-86
2023/08/19 02:44:23;;;;;;;18.48;14.23;;;19.80;99.90;;;;;;5092325;28;20105;-87
2023/08/19 02:46:50;;;;;;;21.38;14.77;;;19.80;99.90;;;;;;5092548;28;20072;-87
2023/08/19 02:49:16;;;;;;;18.45;14.93;;;19.80;99.90;;;;;;5108780;28;20036;-87
2023/08/19 02:51:43;;;;;;;17.50;13.85;;;19.80;99.90;;;;;;5092520;28;20086;-87
2023/08/19 02:54:13;;;;;;;19.00;13.88;;;19.80;99.90;;;;;;5091994;28;20044;-86
2023/08/19 02:56:40;;;;;;;19.30;14.77;;;19.80;99.90;;;;;;5095127;28;20044;-87
2023/08/19 02:59:06;;;;;;;20.08;15.88;;;19.80;99.90;;;;;;5079574;28;20051;-86
2023/08/19 03:01:33;;;;;;;20.38;14.50;;;19.80;99.90;;;;;;5079510;28;20043;-87
2023/08/19 03:04:00;;;;;;;18.33;14.93;;;19.80;99.90;;;;;;5096057;28;20034;-87
2023/08/19 03:06:27;;;;;;;17.88;14.02;;;19.80;99.90;;;;;;5095996;28;20484;-87
2023/08/19 03:08:54;;;;;;;17.67;14.60;;;19.80;99.90;;;;;;5079198;28;20156;-87
2023/08/19 03:11:20;;;;;;;21.75;14.55;;;19.70;99.90;;;;;;5095720;28;20039;-86
2023/08/19 03:13:47;;;;;;;18.10;15.52;;;19.70;99.90;;;;;;5095952;28;20127;-87
2023/08/19 03:16:14;;;;;;;17.33;14.32;;;19.80;99.90;;;;;;5095629;28;20040;-87
2023/08/19 03:18:41;;;;;;;19.17;15.52;;;19.70;99.90;;;;;;5095894;28;20027;-86
2023/08/19 03:21:08;;;;;;;20.80;15.98;;;19.70;99.90;;;;;;5078969;28;20442;-87
2023/08/19 03:23:34;;;;;;;22.60;16.02;;;19.70;99.90;;;;;;5079559;28;20043;-86
2023/08/19 03:26:02;;;;;;;18.75;14.88;;;19.60;99.90;;;;;;5079300;28;20040;-86
2023/08/19 03:28:28;;;;;;;19.23;15.38;;;19.80;99.90;;;;;;5095405;28;20047;-86
2023/08/19 03:30:55;;;;;;;19.40;16.08;;;19.70;99.90;;;;;;5095465;28;20410;-86
2023/08/19 03:33:22;;;;;;;19.02;14.85;;;19.70;99.90;;;;;;5095305;28;20040;-87
2023/08/19 03:35:49;;;;;;;19.65;16.10;;;19.70;99.90;;;;;;5079180;28;20499;-86
2023/08/19 03:38:16;;;;;;;17.88;15.32;;;19.70;99.90;;;;;;5095417;28;20048;-86
2023/08/19 03:40:42;;;;;;;20.23;14.90;;;19.80;99.90;;;;;;5095358;28;20044;-86
2023/08/19 03:43:12;;;;;;;20.05;16.27;;;19.80;99.90;;;;;;5094524;28;20048;-86
2023/08/19 03:45:39;;;;;;;25.30;14.93;;;19.70;99.90;;;;;;5095750;28;20184;-86
2023/08/19 03:48:06;;;;;;;19.70;14.77;;;19.80;99.90;;;;;;5094835;28;20122;-86
2023/08/19 03:50:32;;;;;;;20.85;15.60;;;19.80;99.90;;;;;;5095407;28;20040;-87
2023/08/19 03:52:59;;;;;;;21.75;15.60;;;19.80;99.90;;;;;;5095130;28;20133;-86
2023/08/19 03:55:26;;;;;;;24.83;15.95;;;19.70;99.90;;;;;;5094824;28;20044;-86
2023/08/19 03:57:53;;;;;;;19.25;15.02;;;19.80;99.90;;;;;;5078681;28;20044;-86
2023/08/19 04:00:20;;;;;;;19.77;15.27;;;19.80;99.90;;;;;;5094599;28;20050;-86
2023/08/19 04:02:47;;;;;;;18.55;15.27;;;19.80;99.90;;;;;;5094371;28;20444;-87
2023/08/19 04:05:14;;;;;;;18.85;15.23;;;19.70;99.90;;;;;;5094557;28;20480;-87
2023/08/19 04:07:40;;;;;;;18.95;15.55;;;19.70;99.90;;;;;;5093663;28;20051;-86
2023/08/19 04:10:08;;;;;;;22.10;15.60;;;19.70;99.90;;;;;;5094669;28;20806;-86
2023/08/19 04:12:35;;;;;;;17.05;14.88;;;19.70;99.90;;;;;;5094422;28;20040;-86
2023/08/19 04:15:02;;;;;;;24.05;16.08;;;19.80;99.90;;;;;;5111163;28;20071;-85
2023/08/19 04:17:32;;;;;;;20.80;15.85;;;19.80;99.90;;;;;;5077901;28;20090;-86
2023/08/19 04:19:58;;;;;;;22.20;15.38;;;19.70;99.90;;;;;;5094547;28;20051;-87
2023/08/19 04:22:26;;;;;;;19.60;15.50;;;19.80;99.90;;;;;;5094598;28;20036;-86
2023/08/19 04:24:53;;;;;;;18.25;14.48;;;19.80;99.90;;;;;;5094629;28;20040;-86
2023/08/19 04:27:21;;;;;;;18.33;14.90;;;19.70;99.90;;;;;;5094117;28;20035;-85
2023/08/19 04:29:48;;;;;;;20.48;15.35;;;19.80;99.90;;;;;;5078031;28;20531;-86
2023/08/19 04:32:15;;;;;;;18.70;15.20;;;19.90;99.90;;;;;;5093995;28;20075;-86
2023/08/19 04:34:42;;;;;;;18.75;15.38;;;19.70;99.90;;;;;;5094547;28;20036;-86
2023/08/19 04:37:09;;;;;;;19.52;14.65;;;19.70;99.90;;;;;;5094499;28;20044;-86
2023/08/19 04:39:37;;;;;;;19.85;15.65;;;19.70;99.90;;;;;;5110281;28;20043;-86
2023/08/19 04:42:04;;;;;;;21.60;15.13;;;19.80;99.90;;;;;;5093325;28;20641;-86
2023/08/19 04:44:31;;;;;;;19.13;15.32;;;19.80;99.90;;;;;;5090109;28;20127;-86
2023/08/19 04:47:00;;;;;;;19.85;14.88;;;19.90;99.90;;;;;;5074241;28;20037;-86
2023/08/19 04:49:26;;;;;;;20.30;14.52;;;19.90;99.90;;;;;;5090400;28;20039;-86
2023/08/19 04:51:53;;;;;;;17.33;14.00;;;19.90;99.90;;;;;;5090689;28;20036;-86
2023/08/19 04:54:20;;;;;;;20.20;14.35;;;19.90;99.90;;;;;;5090350;28;20181;-86
2023/08/19 04:56:47;;;;;;;19.98;14.68;;;19.90;99.90;;;;;;5074015;28;20040;-86
2023/08/19 04:59:16;;;;;;;18.90;14.20;;;19.90;99.90;;;;;;5073714;28;20032;-85
2023/08/19 05:01:43;;;;;;;21.02;15.07;;;20.00;99.90;;;;;;5090381;28;20162;-86
2023/08/19 05:04:09;;;;;;;18.63;14.90;;;20.00;99.90;;;;;;5090178;28;20128;-86
2023/08/19 05:06:36;;;;;;;17.42;13.98;;;20.00;99.90;;;;;;5073576;28;20123;-86
2023/08/19 05:09:03;;;;;;;20.15;14.07;;;20.10;99.90;;;;;;5073677;28;20087;-86
2023/08/19 05:11:30;;;;;;;19.70;14.63;;;20.10;99.90;;;;;;5073201;28;20047;-86
2023/08/19 05:13:56;;;;;;;20.52;14.50;;;20.20;99.90;;;;;;5090162;28;20036;-86
2023/08/19 05:16:23;;;;;;;19.88;14.48;;;20.20;99.90;;;;;;5089862;28;20118;-86
2023/08/19 05:19:14;;;;;;;19.00;14.25;;;20.20;99.90;;;;;;5073041;28;20076;-87
2023/08/19 05:21:41;;;;;;;19.60;14.07;;;20.30;99.90;;;;;;5089578;28;20119;-86
2023/08/19 05:24:10;;;;;;;18.23;13.60;;;20.30;99.90;;;;;;5073421;28;20123;-87
2023/08/19 05:26:39;;;;;;;21.38;14.05;;;20.40;99.90;;;;;;5089159;28;20068;-86
2023/08/19 05:29:06;;;;;;;15.88;13.55;;;20.40;99.90;;;;;;5089773;28;20036;-86
2023/08/19 05:31:33;;;;;;;16.35;13.75;;;20.50;99.90;;;;;;5089403;28;20040;-86
2023/08/19 05:34:00;;;;;;;15.85;13.02;;;20.50;99.90;;;;;;5089610;28;20111;-86
2023/08/19 05:36:27;;;;;;;18.17;14.10;;;20.60;99.90;;;;;;5073005;28;20052;-86
2023/08/19 05:38:54;;;;;;;17.17;13.55;;;20.60;99.90;;;;;;5072968;28;20035;-87
2023/08/19 05:41:21;;;;;;;20.00;13.40;;;20.70;99.90;;;;;;5072434;28;20481;-86
2023/08/19 05:43:47;;;;;;;17.92;13.55;;;20.80;99.90;;;;;;5072667;28;20416;-87
2023/08/19 05:46:14;;;;;;;16.58;12.63;;;20.70;99.90;;;;;;5072682;28;20477;-86
2023/08/19 05:48:41;;;;;;;18.42;13.60;;;20.80;99.90;;;;;;5072639;28;20048;-86
2023/08/19 05:51:08;;;;;;;18.05;12.50;;;20.90;99.90;;;;;;5073027;28;20127;-87
2023/08/19 05:53:35;;;;;;;16.80;12.98;;;20.90;99.90;;;;;;5088872;28;20420;-87
2023/08/19 05:56:02;;;;;;;16.90;12.30;;;21.00;99.90;;;;;;5073135;28;20049;-87
2023/08/19 05:58:29;;;;;;;15.05;12.43;;;21.10;99.90;;;;;;5088868;28;20523;-86
2023/08/19 06:00:58;;;;;;;16.80;12.10;;;21.10;99.90;;;;;;5072820;28;20040;-86
2023/08/19 06:03:24;;;;;;;15.50;12.20;;;21.20;99.90;;;;;;5072364;28;20124;-86
2023/08/19 06:05:51;;;;;;;16.90;11.73;;;21.20;99.90;;;;;;5072679;28;20169;-87
2023/08/19 06:08:18;;;;;;;17.25;11.30;;;21.30;99.90;;;;;;5089306;28;20036;-86
2023/08/19 06:11:02;;;;;;;13.60;10.60;;;21.40;99.90;;;;;;5088801;28;20041;-86
2023/08/19 06:13:29;;;;;;;15.40;11.15;;;21.40;99.90;;;;;;5105941;28;20049;-86
2023/08/19 06:15:56;;;;;;;14.45;11.50;;;21.60;99.90;;;;;;5089304;28;20040;-86
2023/08/19 06:18:24;;;;;;;11.45;9.88;;;21.50;99.90;;;;;;5072576;28;20158;-86
2023/08/19 06:20:52;;;;;;;17.70;10.57;;;21.60;99.90;;;;;;5072618;28;20032;-87
2023/08/19 06:23:19;;;;;;;14.43;10.05;;;21.70;99.90;;;;;;5088785;28;20080;-86
2023/08/19 06:25:50;;;;;;;14.30;10.73;;;21.70;99.90;;;;;;5088907;28;20435;-86
2023/08/19 06:28:18;;;;;;;13.40;10.10;;;21.80;99.90;;;;;;5072427;28;20504;-86
2023/08/19 06:30:46;;;;;;;15.95;10.95;;;21.90;99.90;;;;;;5106352;28;20037;-86
2023/08/19 06:33:14;;;;;;;17.17;10.30;;;22.00;99.90;;;;;;5076116;28;20497;-86
2023/08/19 06:35:48;;;;;;;14.25;10.70;;;22.00;99.90;;;;;;5076233;28;20044;-86
2023/08/19 06:38:23;;;;;;;12.18;9.60;;;22.10;99.90;;;;;;5092695;28;20048;-86
2023/08/19 06:41:09;;;;;;;14.85;9.68;;;22.20;99.90;;;;;;5092248;28;20409;-86
2023/08/19 06:43:37;;;;;;;14.75;9.52;;;22.20;99.90;;;;;;5092112;28;20084;-86
2023/08/19 06:46:06;;;;;;;11.98;9.68;;;22.30;99.90;;;;;;5092733;28;20040;-86
2023/08/19 06:48:34;;;;;;;13.05;9.75;;;22.20;99.90;;;;;;5092634;28;20056;-86
2023/08/19 06:51:03;;;;;;;13.40;10.40;;;22.30;99.90;;;;;;5059720;28;20044;-86
2023/08/19 06:53:30;;;;;;;13.07;9.43;;;22.30;99.90;;;;;;5092534;28;20101;-87
2023/08/19 06:56:02;;;;;;;13.32;9.65;;;22.30;99.90;;;;;;5076081;28;20087;-86
2023/08/19 06:58:35;;;;;;;11.63;9.35;;;22.30;99.90;;;;;;5092991;28;20040;-86
2023/08/19 07:01:07;;;;;;;15.38;10.90;;;22.30;99.90;;;;;;5092634;28;20040;-86
2023/08/19 07:03:36;;;;;;;10.70;9.15;;;22.30;99.90;;;;;;5092134;28;20036;-86
2023/08/19 07:06:03;;;;;;;14.73;9.38;;;22.30;99.90;;;;;;5092385;28;20040;-86
2023/08/19 07:08:33;;;;;;;13.18;10.02;;;22.30;99.90;;;;;;5092546;28;20041;-86
2023/08/19 07:11:00;;;;;;;12.88;9.48;;;22.30;99.90;;;;;;5076306;28;20040;-86
2023/08/19 07:13:28;;;;;;;15.25;9.88;;;22.20;99.90;;;;;;5075691;28;20496;-86
2023/08/19 07:16:00;;;;;;;11.93;8.50;;;22.20;99.90;;;;;;5091868;28;20053;-86
2023/08/19 07:18:29;;;;;;;19.27;9.70;;;22.20;99.90;;;;;;5075477;28;20413;-86
2023/08/19 07:20:58;;;;;;;13.48;9.27;;;22.20;99.90;;;;;;5075583;28;20044;-87
2023/08/19 07:23:25;;;;;;;12.48;8.77;;;22.20;99.90;;;;;;5075308;28;20470;-86
2023/08/19 07:25:52;;;;;;;13.95;9.30;;;22.20;99.90;;;;;;5075756;28;20040;-86
2023/08/19 07:28:23;;;;;;;11.30;9.18;;;22.10;99.90;;;;;;5091879;28;20496;-86
2023/08/19 07:30:51;;;;;;;11.35;9.10;;;22.20;99.90;;;;;;5091776;28;20485;-86
2023/08/19 07:33:18;;;;;;;14.02;9.00;;;22.20;99.90;;;;;;5075424;28;20044;-87
2023/08/19 07:35:45;;;;;;;11.13;8.73;;;22.20;99.90;;;;;;5058766;28;20041;-86
2023/08/19 07:38:12;;;;;;;13.48;9.35;;;22.20;99.90;;;;;;5059355;28;20439;-86
2023/08/19 07:40:39;;;;;;;10.95;8.70;;;22.30;99.90;;;;;;5091468;28;20044;-87
2023/08/19 07:43:05;;;;;;;11.32;8.50;;;22.30;99.90;;;;;;5074128;28;20048;-86
2023/08/19 07:45:32;;;;;;;10.82;8.00;;;22.30;99.90;;;;;;5075108;28;20724;-86
2023/08/19 07:47:59;;;;;;;11.40;8.93;;;22.30;99.90;;;;;;5058013;28;20088;-86
2023/08/19 07:50:26;;;;;;;11.43;7.85;;;22.30;99.90;;;;;;5091629;28;20404;-86
2023/08/19 07:52:56;;;;;;;11.70;8.98;;;22.30;99.90;;;;;;5058637;28;20056;-87
2023/08/19 07:55:22;;;;;;;11.23;9.20;;;22.40;99.90;;;;;;5059308;28;20566;-86
2023/08/19 07:57:49;;;;;;;10.68;8.40;;;22.50;99.90;;;;;;5090893;28;20086;-87
2023/08/19 08:00:16;;;;;;;11.90;8.50;;;22.60;99.90;;;;;;5074825;28;20131;-86
2023/08/19 08:02:43;;;;;;;11.88;7.88;;;22.60;99.90;;;;;;5058071;28;20037;-87
2023/08/19 08:05:10;;;;;;;15.38;8.57;;;22.70;99.90;;;;;;5074484;28;20028;-87
2023/08/19 08:07:37;;;;;;;11.80;8.07;;;22.80;99.90;;;;;;5091378;28;20068;-87
2023/08/19 08:10:04;;;;;;;12.77;8.63;;;22.80;99.90;;;;;;5074582;28;20040;-86
2023/08/19 08:12:31;;;;;;;12.88;8.35;;;22.90;99.90;;;;;;5091354;28;20535;-87
2023/08/19 08:14:58;;;;;;;10.82;8.40;;;23.00;99.90;;;;;;5074132;28;20044;-87
2023/08/19 08:17:25;;;;;;;11.00;8.10;;;23.00;99.90;;;;;;5091435;28;20036;-87
2023/08/19 08:19:54;;;;;;;11.35;8.35;;;23.10;99.90;;;;;;5074371;28;20090;-87
2023/08/19 08:22:20;;;;;;;10.05;8.05;;;23.20;99.90;;;;;;5090811;28;20040;-87
2023/08/19 08:24:47;;;;;;;11.88;8.20;;;23.20;99.90;;;;;;5057569;28;20047;-87
2023/08/19 08:27:14;;;;;;;11.02;7.57;;;23.30;99.90;;;;;;5058250;28;20044;-87
2023/08/19 08:29:46;;;;;;;10.35;7.75;;;23.40;99.90;;;;;;5074222;28;20032;-87
2023/08/19 08:32:13;;;;;;;9.23;7.07;;;23.40;99.90;;;;;;5058160;28;20051;-87
2023/08/19 08:34:40;;;;;;;10.35;7.30;;;23.50;99.90;;;;;;5074704;28;20492;-87
2023/08/19 08:37:06;;;;;;;8.50;6.80;;;23.60;99.90;;;;;;5090438;28;20045;-87
2023/08/19 08:39:33;;;;;;;9.75;7.10;;;23.70;99.90;;;;;;5074014;28;20139;-86
2023/08/19 08:42:01;;;;;;;9.50;6.60;;;23.90;99.90;;;;;;5057418;28;20521;-87
2023/08/19 08:44:28;;;;;;;10.07;6.75;;;23.90;99.90;;;;;;5090259;28;20501;-87
2023/08/19 08:46:57;;;;;;;9.98;6.72;;;24.00;99.90;;;;;;5090713;28;20048;-87
2023/08/19 08:49:27;;;;;;;8.77;6.55;;;24.10;99.90;;;;;;5090715;28;20040;-86
2023/08/19 08:51:57;;;;;;;8.82;6.95;;;24.10;99.90;;;;;;5057711;28;20054;-87
2023/08/19 08:54:24;;;;;;;7.45;6.03;;;24.20;99.90;;;;;;5074204;28;20040;-87
2023/08/19 08:56:51;;;;;;;8.07;6.00;;;24.30;99.90;;;;;;5073618;28;20150;-87
2023/08/19 08:59:17;;;;;;;11.07;6.22;;;24.40;99.90;;;;;;5057565;28;20044;-87
2023/08/19 09:01:46;;;;;;;22.30;6.53;;;24.30;99.90;;;;;;5057576;28;20439;-87
2023/08/19 09:04:15;;;;;;;9.18;5.88;;;24.50;99.90;;;;;;5074529;28;20040;-87
2023/08/19 09:06:45;;;;;;;7.75;5.90;;;24.50;99.90;;;;;;5090352;28;20040;-88
2023/08/19 09:09:14;;;;;;;7.45;5.53;;;24.60;99.90;;;;;;5090510;28;20037;-87
2023/08/19 09:11:46;;;;;;;9.40;5.40;;;24.60;99.90;;;;;;5074014;28;20131;-87
2023/08/19 09:14:42;;;;;;;7.95;5.25;;;24.70;99.90;;;;;;5090246;28;20040;-88
2023/08/19 09:17:17;;;;;;;7.22;5.60;;;24.80;99.90;;;;;;5090133;28;20036;-87
2023/08/19 09:19:43;;;;;;;12.77;6.05;;;24.90;99.90;;;;;;5107402;28;20110;-88
2023/08/19 09:22:10;;;;;;;7.28;5.25;;;25.10;99.90;;;;;;5073472;28;20044;-88
2023/08/19 09:24:37;;;;;;;7.35;5.00;;;25.20;99.90;;;;;;5090414;28;20551;-87
2023/08/19 09:27:04;;;;;;;6.45;4.90;;;25.40;99.90;;;;;;5056954;28;20040;-88
2023/08/19 09:29:32;;;;;;;6.35;4.97;;;25.60;99.90;;;;;;5057807;28;20028;-87
2023/08/19 09:31:59;;;;;;;5.88;4.97;;;25.80;99.90;;;;;;5090447;28;20044;-88
2023/08/19 09:34:26;;;;;;;8.30;4.28;;;26.00;99.90;;;;;;5073927;28;20047;-88
2023/08/19 09:36:56;;;;;;;8.10;4.35;;;26.20;99.90;;;;;;5090206;28;20076;-87
2023/08/19 09:39:26;;;;;;;6.00;4.57;;;26.20;99.90;;;;;;5090027;28;20570;-88
2023/08/19 09:41:59;;;;;;;8.07;4.45;;;26.20;99.90;;;;;;5073236;28;20045;-87
2023/08/19 09:44:29;;;;;;;6.50;4.57;;;26.20;99.90;;;;;;5073268;28;20140;-88
2023/08/19 09:46:56;;;;;;;5.82;4.30;;;26.20;99.90;;;;;;5072913;28;20445;-88
2023/08/19 09:49:23;;;;;;;6.75;4.40;;;26.20;99.90;;;;;;5090063;28;20447;-87
2023/08/19 09:51:54;;;;;;;8.38;4.38;;;26.20;99.90;;;;;;5089945;28;20154;-87
2023/08/19 09:54:22;;;;;;;6.78;4.63;;;26.30;99.90;;;;;;5073629;28;20039;-88
2023/08/19 09:56:56;;;;;;;5.88;4.35;;;26.30;99.90;;;;;;5089826;28;20664;-88
2023/08/19 09:59:26;;;;;;;11.48;4.60;;;26.30;99.90;;;;;;5073360;28;20132;-87
2023/08/19 10:01:54;;;;;;;7.50;4.40;;;26.40;99.90;;;;;;5089945;28;20037;-88
2023/08/19 10:04:20;;;;;;;6.72;4.40;;;26.40;99.90;;;;;;5089903;28;20066;-88
2023/08/19 10:06:50;;;;;;;6.10;4.60;;;26.40;99.90;;;;;;5089493;28;20036;-88
2023/08/19 10:09:22;;;;;;;8.20;4.90;;;26.30;99.90;;;;;;5089513;28;20060;-88
2023/08/19 10:11:52;;;;;;;8.98;4.68;;;26.30;99.90;;;;;;5106513;28;20044;-88
2023/08/19 10:14:26;;;;;;;9.48;4.85;;;26.30;99.90;;;;;;5089208;28;20053;-88
2023/08/19 10:16:54;;;;;;;9.15;4.80;;;26.30;99.90;;;;;;5089964;28;20071;-88
2023/08/19 10:19:22;;;;;;;9.10;5.25;;;26.30;99.90;;;;;;5073015;28;20449;-87
2023/08/19 10:21:52;;;;;;;7.40;4.45;;;26.30;99.90;;;;;;5089747;28;20072;-88
2023/08/19 10:24:21;;;;;;;8.23;4.65;;;26.30;99.90;;;;;;5089480;28;20098;-88
2023/08/19 10:26:48;;;;;;;8.18;5.05;;;26.40;99.90;;;;;;5089361;28;20040;-87
2023/08/19 10:29:25;;;;;;;6.50;4.47;;;26.50;99.90;;;;;;5089543;28;20127;-88
2023/08/19 10:31:51;;;;;;;8.05;4.18;;;26.50;99.90;;;;;;5073881;28;20127;-88
2023/08/19 10:34:18;;;;;;;6.53;4.25;;;26.60;99.90;;;;;;5089447;28;20079;-88
2023/08/19 10:37:05;;;;;;;6.60;4.32;;;26.70;99.90;;;;;;5089648;28;20040;-88
2023/08/19 10:39:32;;;;;;;9.88;4.95;;;26.90;99.90;;;;;;5089760;28;20042;-88
2023/08/19 10:41:59;;;;;;;7.30;4.50;;;26.90;99.90;;;;;;5073134;28;20532;-88
2023/08/19 10:44:31;;;;;;;8.10;4.70;;;27.00;99.90;;;;;;5072860;28;20051;-87
2023/08/19 10:47:13;;;;;;;8.13;4.78;;;27.00;99.90;;;;;;5057785;28;20041;-88
2023/08/19 10:49:40;;;;;;;8.80;4.30;;;27.20;99.90;;;;;;5073846;28;20119;-88
2023/08/19 10:52:07;;;;;;;5.72;3.80;;;27.40;99.90;;;;;;5089830;28;20078;-89
2023/08/19 10:54:40;;;;;;;8.52;4.13;;;27.60;99.90;;;;;;5105996;28;20045;-88
2023/08/19 10:57:24;;;;;;;8.43;4.53;;;27.50;99.90;;;;;;5105777;28;20404;-88
2023/08/19 10:59:58;;;;;;;7.90;4.25;;;27.50;99.90;;;;;;5072527;28;20050;-88
2023/08/19 11:02:29;;;;;;;9.90;4.88;;;27.40;99.90;;;;;;5088964;28;20036;-88
2023/08/19 11:04:57;;;;;;;7.53;4.28;;;27.40;99.90;;;;;;5089653;28;20035;-88
2023/08/19 11:07:25;;;;;;;6.78;3.83;;;27.30;99.90;;;;;;5088949;28;20036;-88
2023/08/19 11:09:56;;;;;;;8.95;4.80;;;27.30;99.90;;;;;;5088958;28;20039;-88
2023/08/19 11:12:26;;;;;;;9.70;4.50;;;27.10;99.90;;;;;;5088852;28;20048;-87
2023/08/19 11:14:56;;;;;;;6.93;4.35;;;26.90;99.90;;;;;;5072626;28;20040;-87
2023/08/19 11:17:28;;;;;;;7.57;4.95;;;26.60;99.90;;;;;;5088500;28;20049;-86
2023/08/19 11:19:55;;;;;;;8.80;5.43;;;26.40;99.90;;;;;;5091746;28;20032;-85
2023/08/19 11:22:23;;;;;;;8.80;5.30;;;26.20;99.90;;;;;;5074805;28;20072;-86
2023/08/19 11:24:51;;;;;;;9.20;5.15;;;26.00;99.90;;;;;;5059000;28;20520;-86
2023/08/19 11:27:20;;;;;;;7.72;5.20;;;25.80;99.90;;;;;;5091504;28;20044;-86
2023/08/19 11:29:47;;;;;;;11.93;5.60;;;25.70;99.90;;;;;;5091420;28;20036;-86
2023/08/19 11:32:20;;;;;;;12.93;5.78;;;25.60;99.90;;;;;;5074739;28;20451;-86
2023/08/19 11:34:50;;;;;;;12.10;5.70;;;25.50;99.90;;;;;;5075069;28;20044;-86
2023/08/19 11:37:17;;;;;;;8.15;5.30;;;25.40;99.90;;;;;;5074813;28;20051;-86
2023/08/19 11:39:47;;;;;;;11.73;5.70;;;25.30;99.90;;;;;;5075268;28;20041;-86
2023/08/19 11:42:14;;;;;;;11.20;5.45;;;25.30;99.90;;;;;;5074341;28;20045;-86
2023/08/19 11:44:44;;;;;;;10.73;5.57;;;25.20;99.90;;;;;;5074758;28;20051;-86
2023/08/19 11:47:11;;;;;;;8.90;5.85;;;25.20;99.90;;;;;;5074539;28;20074;-86
2023/08/19 11:49:38;;;;;;;7.95;5.82;;;25.10;99.90;;;;;;5091300;28;20063;-86
2023/08/19 11:52:05;;;;;;;9.30;5.57;;;25.00;99.90;;;;;;5074698;28;20040;-86
2023/08/19 11:54:31;;;;;;;8.48;5.75;;;25.00;99.90;;;;;;5057962;28;20041;-86
2023/08/19 11:57:01;;;;;;;7.97;5.78;;;25.00;99.90;;;;;;5058214;28;20601;-86
2023/08/19 11:59:29;;;;;;;11.60;6.05;;;25.00;99.90;;;;;;5058439;28;20049;-86
2023/08/19 12:01:57;;;;;;;9.52;6.03;;;25.10;99.90;;;;;;5091506;28;20044;-87
2023/08/19 12:04:27;;;;;;;8.95;5.85;;;25.20;99.90;;;;;;5074339;28;20043;-87
2023/08/19 12:06:53;;;;;;;10.10;6.13;;;25.30;99.90;;;;;;5074759;28;20484;-87
2023/08/19 12:09:31;;;;;;;10.52;6.05;;;25.40;99.90;;;;;;5074432;28;20046;-87
2023/08/19 12:12:16;;;;;;;10.27;5.53;;;25.60;99.90;;;;;;5091375;28;20150;-87
2023/08/19 12:14:42;;;;;;;8.63;6.43;;;25.70;99.90;;;;;;5074681;28;20072;-87
2023/08/19 12:17:11;;;;;;;8.95;6.22;;;25.70;99.90;;;;;;5074409;28;20087;-87
2023/08/19 12:19:37;;;;;;;9.18;6.00;;;25.80;99.90;;;;;;5058556;28;20036;-87
2023/08/19 12:22:04;;;;;;;9.07;6.05;;;25.70;99.90;;;;;;5074523;28;20037;-86
2023/08/19 12:24:31;;;;;;;9.77;6.25;;;25.70;99.90;;;;;;5074060;28;20500;-87
2023/08/19 12:26:58;;;;;;;12.15;6.25;;;25.70;99.90;;;;;;5074521;28;20047;-87
2023/08/19 12:29:25;;;;;;;10.55;6.45;;;25.60;99.90;;;;;;5073636;28;20496;-87
2023/08/19 12:31:51;;;;;;;10.95;6.68;;;25.60;99.90;;;;;;5074187;28;20036;-87
2023/08/19 12:34:18;;;;;;;10.13;6.10;;;25.50;99.90;;;;;;5073764;28;20128;-87
2023/08/19 12:36:47;;;;;;;22.13;7.13;;;25.50;99.90;;;;;;5090637;28;20377;-87
2023/08/19 12:39:14;;;;;;;10.20;6.60;;;25.60;99.90;;;;;;5090731;28;20090;-87